Time;durP1;ratioP1;P1;durP2;ratioP2;P2;SDS_P1;SDS_P2;PMS_P1;PMS_P2;Temp;Humidity;BMP_temperature;BMP_pressure;BME280_temperature;BME280_humidity;BME280_pressure;Samples;Min_cycle;Max_cycle;Signal;HPM_P1;HPM_P2
2022/04/25 00:01:14;;;;;;;8.73;4.03;;;;;;;;;;4975604;28;20023;-79
2022/04/25 00:03:40;;;;;;;12.25;4.40;;;;;;;;;;4975054;28;20023;-79
2022/04/25 00:06:06;;;;;;;12.05;4.57;;;;;;;;;;4974553;28;20109;-79
2022/04/25 00:08:32;;;;;;;12.00;4.90;;;;;;;;;;4974662;28;20027;-79
2022/04/25 00:10:58;;;;;;;13.48;4.15;;;;;;;;;;4975021;28;20031;-79
2022/04/25 00:13:24;;;;;;;10.82;3.95;;;;;;;;;;4974326;28;20023;-79
2022/04/25 00:15:52;;;;;;;7.93;4.10;;;;;;;;;;4974957;28;20058;-79
2022/04/25 00:18:18;;;;;;;7.93;4.15;;;;;;;;;;4975213;28;20049;-79
2022/04/25 00:20:44;;;;;;;8.77;4.03;;;;;;;;;;4974574;28;20102;-79
2022/04/25 00:23:10;;;;;;;6.60;3.58;;;;;;;;;;4961132;28;20031;-79
2022/04/25 00:25:37;;;;;;;8.85;3.90;;;;;;;;;;4955394;28;20031;-79
2022/04/25 00:28:04;;;;;;;8.82;3.63;;;;;;;;;;4953969;28;20031;-79
2022/04/25 00:30:30;;;;;;;10.52;4.00;;;;;;;;;;4956256;28;20047;-79
2022/04/25 00:32:57;;;;;;;9.18;4.00;;;;;;;;;;4994356;28;20030;-79
2022/04/25 00:35:23;;;;;;;11.65;3.80;;;;;;;;;;4993784;28;20022;-79
2022/04/25 00:37:50;;;;;;;8.73;3.72;;;;;;;;;;4993884;28;20041;-79
2022/04/25 00:40:18;;;;;;;9.48;4.18;;;;;;;;;;4994079;28;20029;-79
2022/04/25 00:42:44;;;;;;;8.90;4.35;;;;;;;;;;4978490;28;20118;-79
2022/04/25 00:45:11;;;;;;;8.38;4.25;;;;;;;;;;4974528;28;20027;-79
2022/04/25 00:47:38;;;;;;;9.00;3.97;;;;;;;;;;4973056;28;20498;-79
2022/04/25 00:50:04;;;;;;;11.93;4.05;;;;;;;;;;4974136;28;20039;-79
2022/04/25 00:52:30;;;;;;;10.43;3.45;;;;;;;;;;4974210;28;20525;-79
2022/04/25 00:54:58;;;;;;;10.57;4.03;;;;;;;;;;4974244;28;20027;-79
2022/04/25 00:57:24;;;;;;;12.93;3.70;;;;;;;;;;4974072;28;20537;-79
2022/04/25 00:59:50;;;;;;;10.80;4.13;;;;;;;;;;4974038;28;20029;-79
2022/04/25 01:02:16;;;;;;;10.63;4.30;;;;;;;;;;4974337;28;20058;-79
2022/04/25 01:04:43;;;;;;;7.70;4.28;;;;;;;;;;4973507;28;20113;-79
2022/04/25 01:07:09;;;;;;;10.85;4.82;;;;;;;;;;4974323;28;20033;-79
2022/04/25 01:09:35;;;;;;;9.15;4.05;;;;;;;;;;4966545;28;20081;-79
2022/04/25 01:12:02;;;;;;;14.80;4.05;;;;;;;;;;4954766;28;20023;-79
2022/04/25 01:14:28;;;;;;;7.50;3.55;;;;;;;;;;4962764;28;20029;-79
2022/04/25 01:16:54;;;;;;;11.63;4.25;;;;;;;;;;4992670;28;20054;-79
2022/04/25 01:19:21;;;;;;;9.63;3.80;;;;;;;;;;4987882;28;20027;-79
2022/04/25 01:21:57;;;;;;;8.73;4.40;;;;;;;;;;4974038;28;20031;-79
2022/04/25 01:27:18;;;;;;;8.10;4.25;;;;;;;;;;4974317;28;20062;-79
2022/04/25 01:29:45;;;;;;;7.65;3.78;;;;;;;;;;4981829;28;20026;-79
2022/04/25 01:32:11;;;;;;;10.50;3.88;;;;;;;;;;4987428;28;20061;-79
2022/04/25 01:34:38;;;;;;;6.57;3.63;;;;;;;;;;4985134;28;20463;-79
2022/04/25 01:37:08;;;;;;;9.65;3.88;;;;;;;;;;4954461;28;20059;-78
2022/04/25 01:39:38;;;;;;;7.45;3.40;;;;;;;;;;4954668;28;20027;-79
2022/04/25 01:42:05;;;;;;;7.30;3.22;;;;;;;;;;4957359;28;20030;-79
2022/04/25 01:44:31;;;;;;;8.75;3.90;;;;;;;;;;4973934;28;20390;-79
2022/04/25 01:46:57;;;;;;;13.35;4.43;;;;;;;;;;4973453;28;20034;-79
2022/04/25 01:49:23;;;;;;;8.93;4.20;;;;;;;;;;4973562;28;20031;-79
2022/04/25 01:51:49;;;;;;;10.20;4.10;;;;;;;;;;4973359;28;20027;-79
2022/04/25 01:54:19;;;;;;;9.30;4.10;;;;;;;;;;4973835;28;20368;-79
2022/04/25 01:56:45;;;;;;;8.75;3.70;;;;;;;;;;4973148;28;20042;-79
2022/04/25 01:59:11;;;;;;;6.85;3.95;;;;;;;;;;4973040;28;20023;-79
2022/04/25 02:01:37;;;;;;;7.82;3.92;;;;;;;;;;4972258;28;20033;-79
2022/04/25 02:04:03;;;;;;;6.72;3.90;;;;;;;;;;4973278;28;20031;-79
2022/04/25 02:06:29;;;;;;;8.05;3.92;;;;;;;;;;4973364;28;20033;-79
2022/04/25 02:08:55;;;;;;;10.07;4.18;;;;;;;;;;4973529;28;20038;-79
2022/04/25 02:11:24;;;;;;;12.05;4.22;;;;;;;;;;4977700;28;20501;-79
2022/04/25 02:13:51;;;;;;;10.32;4.45;;;;;;;;;;4992758;28;20034;-79
2022/04/25 02:16:17;;;;;;;7.85;3.35;;;;;;;;;;4992815;28;20042;-79
2022/04/25 02:18:43;;;;;;;10.32;3.83;;;;;;;;;;4984720;28;20631;-79
2022/04/25 02:21:09;;;;;;;9.57;4.07;;;;;;;;;;4973605;28;20155;-80
2022/04/25 02:23:36;;;;;;;9.40;3.67;;;;;;;;;;4973408;28;20023;-79
2022/04/25 02:26:02;;;;;;;6.55;3.97;;;;;;;;;;4973154;28;20054;-79
2022/04/25 02:28:28;;;;;;;8.23;3.53;;;;;;;;;;4975441;28;20031;-79
2022/04/25 02:30:54;;;;;;;10.02;4.13;;;;;;;;;;4975479;28;20693;-79
2022/04/25 02:33:20;;;;;;;6.68;3.15;;;;;;;;;;4975639;28;20035;-79
2022/04/25 02:35:47;;;;;;;7.13;3.17;;;;;;;;;;4975477;28;20105;-79
2022/04/25 02:38:13;;;;;;;8.45;3.72;;;;;;;;;;4962256;28;20018;-79
2022/04/25 02:40:39;;;;;;;12.25;3.78;;;;;;;;;;4959813;28;20114;-79
2022/04/25 02:43:05;;;;;;;9.73;3.67;;;;;;;;;;4976530;28;20182;-80
2022/04/25 02:45:31;;;;;;;7.00;3.40;;;;;;;;;;4975925;28;20034;-79
2022/04/25 02:47:57;;;;;;;13.20;4.38;;;;;;;;;;4976462;28;20114;-79
2022/04/25 02:50:23;;;;;;;6.60;3.45;;;;;;;;;;4976787;28;20154;-79
2022/04/25 02:52:53;;;;;;;8.38;3.85;;;;;;;;;;4976254;28;20093;-79
2022/04/25 02:55:19;;;;;;;9.20;3.03;;;;;;;;;;4976374;28;20023;-79
2022/04/25 02:57:45;;;;;;;5.78;3.55;;;;;;;;;;4976474;28;20019;-79
2022/04/25 03:00:11;;;;;;;8.90;3.60;;;;;;;;;;4976260;28;20034;-79
2022/04/25 03:02:38;;;;;;;9.43;3.45;;;;;;;;;;4976513;28;20027;-79
2022/04/25 03:05:04;;;;;;;6.25;3.70;;;;;;;;;;4971769;28;20026;-79
2022/04/25 03:07:30;;;;;;;8.70;3.90;;;;;;;;;;4976595;28;20030;-79
2022/04/25 03:09:56;;;;;;;7.40;3.88;;;;;;;;;;4976095;28;20081;-79
2022/04/25 03:12:22;;;;;;;12.45;3.83;;;;;;;;;;4975004;28;20569;-79
2022/04/25 03:14:48;;;;;;;10.20;4.00;;;;;;;;;;4975790;28;20031;-79
2022/04/25 03:17:14;;;;;;;10.35;3.97;;;;;;;;;;4975898;28;20027;-79
2022/04/25 03:19:41;;;;;;;9.20;3.70;;;;;;;;;;4984903;28;20081;-79
2022/04/25 03:22:07;;;;;;;7.68;3.60;;;;;;;;;;4987198;28;20023;-79
2022/04/25 03:24:33;;;;;;;9.50;4.25;;;;;;;;;;4995684;28;20035;-79
2022/04/25 03:26:59;;;;;;;8.57;3.67;;;;;;;;;;4993910;28;20386;-80
2022/04/25 03:29:25;;;;;;;10.18;4.50;;;;;;;;;;4994994;28;20498;-79
2022/04/25 03:31:52;;;;;;;7.88;3.95;;;;;;;;;;4995195;28;20478;-79
2022/04/25 03:34:18;;;;;;;8.63;4.20;;;;;;;;;;4993216;28;20109;-79
2022/04/25 03:36:44;;;;;;;8.73;4.20;;;;;;;;;;4983373;28;20522;-79
2022/04/25 03:39:11;;;;;;;7.72;3.60;;;;;;;;;;4974389;28;20023;-79
2022/04/25 03:41:37;;;;;;;7.35;3.60;;;;;;;;;;4975317;28;20030;-79
2022/04/25 03:44:03;;;;;;;11.93;4.15;;;;;;;;;;4973867;28;20030;-79
2022/04/25 03:46:31;;;;;;;10.82;4.63;;;;;;;;;;4975778;28;20097;-79
2022/04/25 03:48:57;;;;;;;12.80;4.90;;;;;;;;;;4975172;28;20031;-79
2022/04/25 03:51:23;;;;;;;7.40;4.53;;;;;;;;;;4994922;28;20030;-79
2022/04/25 03:53:49;;;;;;;7.47;4.13;;;;;;;;;;4993683;28;20026;-79
2022/04/25 03:59:00;;;;;;;13.85;6.18;;;;;;;;;;4994587;28;20041;-79
2022/04/25 04:01:26;;;;;;;16.90;6.43;;;;;;;;;;4988020;28;20391;-79
2022/04/25 04:03:53;;;;;;;16.08;5.78;;;;;;;;;;4975135;28;20074;-79
2022/04/25 04:06:19;;;;;;;14.38;5.70;;;;;;;;;;4975107;28;20053;-79
2022/04/25 04:08:46;;;;;;;11.18;5.38;;;;;;;;;;4956832;28;20466;-79
2022/04/25 04:11:12;;;;;;;17.02;6.10;;;;;;;;;;4955785;28;20373;-80
2022/04/25 04:13:38;;;;;;;17.15;7.10;;;;;;;;;;4986485;28;20064;-79
2022/04/25 04:16:04;;;;;;;12.35;5.78;;;;;;;;;;4986659;28;20023;-82
2022/04/25 04:18:31;;;;;;;16.05;7.25;;;;;;;;;;4955556;28;20059;-81
2022/04/25 04:20:57;;;;;;;16.70;7.07;;;;;;;;;;4955664;28;20023;-81
2022/04/25 04:23:23;;;;;;;18.55;6.35;;;;;;;;;;4971089;28;20110;-82
2022/04/25 04:25:49;;;;;;;21.27;8.52;;;;;;;;;;4973898;28;20053;-78
2022/04/25 04:28:15;;;;;;;20.70;8.52;;;;;;;;;;4974347;28;20126;-78
2022/04/25 04:30:43;;;;;;;15.23;7.82;;;;;;;;;;4981077;28;20517;-78
2022/04/25 04:33:09;;;;;;;16.63;7.97;;;;;;;;;;4994002;28;20035;-79
2022/04/25 04:38:20;;;;;;;24.73;8.40;;;;;;;;;;4994321;28;20034;-79
2022/04/25 04:40:46;;;;;;;17.25;8.80;;;;;;;;;;4994188;28;20022;-82
2022/04/25 04:43:12;;;;;;;23.90;9.40;;;;;;;;;;4983881;28;20045;-78
2022/04/25 04:45:38;;;;;;;19.95;9.43;;;;;;;;;;4982391;28;20132;-78
2022/04/25 04:48:04;;;;;;;20.85;9.77;;;;;;;;;;4982425;28;20030;-78
2022/04/25 04:50:30;;;;;;;22.98;9.85;;;;;;;;;;4982518;28;20031;-79
2022/04/25 04:52:58;;;;;;;17.40;9.45;;;;;;;;;;4955248;28;20035;-82
2022/04/25 04:55:24;;;;;;;18.98;8.85;;;;;;;;;;4954600;28;20051;-78
2022/04/25 04:57:50;;;;;;;25.10;10.38;;;;;;;;;;4954824;28;20106;-78
2022/04/25 05:00:17;;;;;;;27.10;11.25;;;;;;;;;;4964360;28;20053;-79
2022/04/25 05:02:43;;;;;;;24.65;10.88;;;;;;;;;;4993691;28;20030;-78
2022/04/25 05:05:10;;;;;;;24.35;10.57;;;;;;;;;;4993637;28;20057;-78
2022/04/25 05:07:36;;;;;;;25.42;10.48;;;;;;;;;;4987683;28;20030;-79
2022/04/25 05:10:03;;;;;;;27.83;12.15;;;;;;;;;;4977690;28;20081;-79
2022/04/25 05:12:30;;;;;;;26.67;10.90;;;;;;;;;;4986209;28;20497;-79
2022/04/25 05:14:56;;;;;;;25.15;10.65;;;;;;;;;;4985145;28;20022;-79
2022/04/25 05:17:22;;;;;;;28.30;11.02;;;;;;;;;;4982670;28;20076;-79
2022/04/25 05:19:49;;;;;;;20.33;12.00;;;;;;;;;;4981599;28;20491;-79
2022/04/25 05:22:15;;;;;;;30.30;10.80;;;;;;;;;;4982368;28;20049;-79
2022/04/25 05:24:41;;;;;;;23.70;11.13;;;;;;;;;;4988638;28;20077;-79
2022/04/25 05:27:07;;;;;;;30.63;10.98;;;;;;;;;;4979976;28;20088;-79
2022/04/25 05:29:33;;;;;;;30.95;12.07;;;;;;;;;;4981559;28;20030;-79
2022/04/25 05:32:00;;;;;;;23.05;12.55;;;;;;;;;;4988630;28;20157;-79
2022/04/25 05:34:26;;;;;;;31.70;11.38;;;;;;;;;;4993236;28;20029;-79
2022/04/25 05:36:52;;;;;;;32.08;12.50;;;;;;;;;;4993229;28;20022;-79
2022/04/25 05:39:18;;;;;;;28.02;11.70;;;;;;;;;;4985438;28;20025;-79
2022/04/25 05:41:46;;;;;;;29.75;11.98;;;;;;;;;;4985462;28;20037;-79
2022/04/25 05:44:12;;;;;;;25.10;12.15;;;;;;;;;;4983991;28;20050;-79
2022/04/25 05:46:38;;;;;;;26.75;12.55;;;;;;;;;;4965476;28;20038;-78
2022/04/25 05:51:58;;;;;;;25.35;10.57;;;;;;;;;;4973761;28;20146;-79
2022/04/25 05:54:27;;;;;;;24.23;11.20;;;;;;;;;;4968753;28;20402;-79
2022/04/25 05:56:53;;;;;;;23.10;11.48;;;;;;;;;;4976965;28;20144;-79
2022/04/25 05:59:19;;;;;;;30.13;12.10;;;;;;;;;;4971696;28;20022;-78
2022/04/25 06:01:45;;;;;;;33.47;12.05;;;;;;;;;;4992311;28;20081;-79
2022/04/25 06:04:12;;;;;;;31.58;11.65;;;;;;;;;;4980490;28;20077;-78
2022/04/25 06:06:38;;;;;;;24.85;11.15;;;;;;;;;;4988848;28;20036;-78
2022/04/25 06:09:05;;;;;;;23.30;11.65;;;;;;;;;;4979907;28;20039;-79
2022/04/25 06:11:32;;;;;;;29.42;11.93;;;;;;;;;;4978101;28;20122;-78
2022/04/25 06:13:59;;;;;;;25.80;11.57;;;;;;;;;;4976228;28;20022;-79
2022/04/25 06:16:25;;;;;;;26.40;12.52;;;;;;;;;;4984468;28;20053;-78
2022/04/25 06:18:51;;;;;;;22.65;12.32;;;;;;;;;;4984876;28;20027;-79
2022/04/25 06:21:17;;;;;;;27.98;12.75;;;;;;;;;;4983242;28;20023;-78
2022/04/25 06:23:43;;;;;;;25.73;11.95;;;;;;;;;;4979483;28;20402;-78
2022/04/25 06:26:09;;;;;;;22.90;11.95;;;;;;;;;;4976251;28;20030;-79
2022/04/25 06:28:36;;;;;;;24.95;11.50;;;;;;;;;;4990421;28;20563;-78
2022/04/25 06:31:02;;;;;;;25.42;11.75;;;;;;;;;;4983024;28;20019;-78
2022/04/25 06:33:28;;;;;;;30.85;12.93;;;;;;;;;;4985400;28;20026;-79
2022/04/25 06:35:55;;;;;;;27.55;12.10;;;;;;;;;;4971345;28;20034;-79
2022/04/25 06:38:21;;;;;;;27.52;11.82;;;;;;;;;;4983565;28;20050;-78
2022/04/25 06:40:47;;;;;;;23.95;12.18;;;;;;;;;;4987276;28;20030;-78
2022/04/25 06:43:16;;;;;;;29.73;13.43;;;;;;;;;;4976277;28;20023;-78
2022/04/25 06:45:43;;;;;;;32.40;12.80;;;;;;;;;;4984073;28;20503;-78
2022/04/25 06:48:09;;;;;;;27.52;13.40;;;;;;;;;;4979602;28;20045;-78
2022/04/25 06:50:35;;;;;;;24.13;12.38;;;;;;;;;;4976353;28;20031;-78
2022/04/25 06:53:01;;;;;;;26.63;13.15;;;;;;;;;;4981922;28;20492;-79
2022/04/25 06:55:28;;;;;;;40.33;13.82;;;;;;;;;;4977054;28;20043;-78
2022/04/25 06:57:54;;;;;;;37.45;13.40;;;;;;;;;;4983837;28;20035;-79
2022/04/25 07:00:22;;;;;;;30.90;13.73;;;;;;;;;;4982252;28;20369;-78
2022/04/25 07:02:51;;;;;;;25.63;12.48;;;;;;;;;;4976848;28;20066;-78
2022/04/25 07:05:17;;;;;;;31.65;13.85;;;;;;;;;;4975205;28;20478;-78
2022/04/25 07:07:43;;;;;;;26.90;11.18;;;;;;;;;;4984408;28;20146;-78
2022/04/25 07:10:09;;;;;;;25.13;12.57;;;;;;;;;;4975203;28;20067;-78
2022/04/25 07:12:35;;;;;;;24.17;12.32;;;;;;;;;;4989677;28;20050;-78
2022/04/25 07:15:02;;;;;;;27.90;12.07;;;;;;;;;;4980372;28;20496;-78
2022/04/25 07:17:28;;;;;;;21.17;11.32;;;;;;;;;;4982700;28;20505;-79
2022/04/25 07:19:54;;;;;;;23.35;10.57;;;;;;;;;;4974135;28;20030;-79
2022/04/25 07:30:35;;;;;;;24.90;8.63;;;;;;;;;;4975024;28;20069;-79
2022/04/25 07:33:02;;;;;;;20.45;8.52;;;;;;;;;;4979491;28;20466;-78
2022/04/25 07:35:28;;;;;;;22.98;8.88;;;;;;;;;;4973011;28;20553;-78
2022/04/25 07:37:57;;;;;;;28.63;8.32;;;;;;;;;;4984760;28;20050;-79
2022/04/25 07:40:24;;;;;;;24.83;9.35;;;;;;;;;;4977185;28;20038;-79
2022/04/25 07:42:50;;;;;;;25.25;8.27;;;;;;;;;;4977045;28;20047;-79
2022/04/25 07:45:16;;;;;;;19.80;7.32;;;;;;;;;;4977978;28;20031;-79
2022/04/25 07:47:45;;;;;;;19.17;7.20;;;;;;;;;;4973758;28;20101;-78
2022/04/25 07:50:11;;;;;;;23.35;7.65;;;;;;;;;;4978241;28;20026;-79
2022/04/25 07:52:37;;;;;;;22.42;7.20;;;;;;;;;;4975679;28;20395;-78
2022/04/25 07:55:04;;;;;;;20.13;8.73;;;;;;;;;;4980822;28;20502;-78
2022/04/25 07:57:30;;;;;;;18.48;7.35;;;;;;;;;;4974123;28;20022;-79
2022/04/25 07:59:56;;;;;;;23.85;8.45;;;;;;;;;;4981568;28;20487;-79
2022/04/25 08:02:23;;;;;;;22.75;8.52;;;;;;;;;;4975270;28;20069;-78
2022/04/25 08:04:49;;;;;;;23.08;8.45;;;;;;;;;;4975531;28;20122;-78
2022/04/25 08:07:15;;;;;;;16.50;7.18;;;;;;;;;;4974910;28;20040;-85
2022/04/25 08:09:41;;;;;;;22.63;7.15;;;;;;;;;;4981007;28;20502;-78
2022/04/25 08:18:00;;;;;;;14.65;5.57;;;;;;;;;;4969968;28;20513;-78
2022/04/25 08:20:28;;;;;;;19.95;6.68;;;;;;;;;;4941965;28;20035;-76
2022/04/25 08:22:54;;;;;;;16.33;7.28;;;;;;;;;;4971145;28;20518;-79
2022/04/25 08:25:20;;;;;;;16.75;6.85;;;;;;;;;;4967249;28;20561;-77
2022/04/25 08:27:46;;;;;;;21.23;7.60;;;;;;;;;;4968807;28;20027;-76
2022/04/25 08:30:12;;;;;;;21.90;7.53;;;;;;;;;;4962224;28;20026;-77
2022/04/25 08:32:38;;;;;;;22.02;7.18;;;;;;;;;;4964431;28;20046;-77
2022/04/25 08:35:05;;;;;;;16.70;7.00;;;;;;;;;;4965525;28;20042;-77
2022/04/25 08:37:31;;;;;;;19.80;6.75;;;;;;;;;;4968104;28;20030;-78
2022/04/25 08:39:57;;;;;;;19.55;7.00;;;;;;;;;;4970159;28;20113;-77
2022/04/25 08:42:23;;;;;;;19.15;6.75;;;;;;;;;;4965983;28;20027;-77
2022/04/25 08:44:52;;;;;;;14.10;6.50;;;;;;;;;;4968474;28;20054;-77
2022/04/25 08:47:18;;;;;;;13.45;5.80;;;;;;;;;;4957816;28;20019;-77
2022/04/25 08:49:44;;;;;;;11.18;4.95;;;;;;;;;;4960330;28;20039;-77
2022/04/25 08:52:11;;;;;;;13.90;5.93;;;;;;;;;;4962962;28;20043;-78
2022/04/25 08:54:37;;;;;;;16.98;6.05;;;;;;;;;;4979056;28;20034;-77
2022/04/25 08:57:04;;;;;;;12.23;5.15;;;;;;;;;;4979960;28;20047;-77
2022/04/25 08:59:33;;;;;;;17.88;6.43;;;;;;;;;;4985462;28;20035;-77
2022/04/25 09:01:59;;;;;;;15.20;6.07;;;;;;;;;;4976844;28;20046;-80
2022/04/25 09:04:25;;;;;;;13.95;4.90;;;;;;;;;;4974878;28;20038;-77
2022/04/25 09:06:52;;;;;;;17.27;5.00;;;;;;;;;;4977884;28;20033;-77
2022/04/25 09:09:18;;;;;;;18.15;5.20;;;;;;;;;;4973184;28;20101;-78
2022/04/25 09:14:29;;;;;;;17.15;4.47;;;;;;;;;;4978380;28;20419;-79
2022/04/25 09:16:55;;;;;;;11.70;5.57;;;;;;;;;;4971817;28;20029;-77
2022/04/25 09:19:21;;;;;;;15.38;5.05;;;;;;;;;;4970658;28;20025;-77
2022/04/25 09:21:47;;;;;;;16.55;5.32;;;;;;;;;;4973426;28;20069;-78
2022/04/25 09:24:22;;;;;;;17.00;5.57;;;;;;;;;;4972098;28;20491;-80
2022/04/25 09:26:50;;;;;;;14.43;4.57;;;;;;;;;;4977095;28;20214;-79
2022/04/25 09:29:24;;;;;;;9.45;4.30;;;;;;;;;;4979965;28;20027;-78
2022/04/25 09:31:50;;;;;;;25.80;5.53;;;;;;;;;;4976998;28;20109;-78
2022/04/25 09:34:59;;;;;;;16.48;5.50;;;;;;;;;;4976342;28;20027;-78
2022/04/25 09:37:02;;;;;;;14.82;5.60;;;;;;;;;;4975722;28;20030;-79
2022/04/25 09:39:30;;;;;;;13.23;4.63;;;;;;;;;;4969394;28;20126;-77
2022/04/25 09:41:57;;;;;;;12.38;4.82;;;;;;;;;;4981553;28;20042;-77
2022/04/25 09:44:23;;;;;;;12.50;5.13;;;;;;;;;;4966707;28;20106;-77
2022/04/25 09:46:50;;;;;;;13.13;5.65;;;;;;;;;;4973761;28;20032;-78
2022/04/25 09:49:20;;;;;;;15.57;4.85;;;;;;;;;;4980076;28;20026;-78
2022/04/25 09:52:05;;;;;;;15.65;4.85;;;;;;;;;;4983221;28;20031;-78
2022/04/25 09:54:31;;;;;;;15.18;5.68;;;;;;;;;;4972421;28;20031;-78
2022/04/25 09:56:57;;;;;;;12.85;5.25;;;;;;;;;;4973285;28;20039;-78
2022/04/25 09:59:25;;;;;;;19.73;6.45;;;;;;;;;;4972363;28;20027;-80
2022/04/25 10:02:04;;;;;;;15.40;5.35;;;;;;;;;;4971025;28;20027;-79
2022/04/25 10:04:34;;;;;;;15.93;6.03;;;;;;;;;;4970292;28;20028;-79
2022/04/25 10:07:04;;;;;;;15.18;5.32;;;;;;;;;;4971308;28;20022;-79
2022/04/25 10:09:31;;;;;;;15.98;6.47;;;;;;;;;;4970939;28;20031;-79
2022/04/25 10:12:01;;;;;;;15.13;5.78;;;;;;;;;;4978380;28;20022;-79
2022/04/25 10:14:28;;;;;;;11.63;5.47;;;;;;;;;;4978276;28;20018;-79
2022/04/25 10:16:58;;;;;;;14.30;5.75;;;;;;;;;;4974785;28;20157;-79
2022/04/25 10:19:24;;;;;;;10.10;5.10;;;;;;;;;;4983910;28;20023;-79
2022/04/25 10:21:52;;;;;;;18.58;5.60;;;;;;;;;;4978919;28;20133;-78
2022/04/25 10:24:18;;;;;;;15.25;5.78;;;;;;;;;;4980834;28;20027;-79
2022/04/25 10:26:45;;;;;;;15.25;5.63;;;;;;;;;;4979702;28;20977;-78
2022/04/25 10:29:13;;;;;;;16.95;5.32;;;;;;;;;;4971922;28;20038;-78
2022/04/25 10:31:43;;;;;;;16.38;5.43;;;;;;;;;;4972484;28;20102;-79
2022/04/25 10:34:10;;;;;;;14.63;5.72;;;;;;;;;;4969766;28;20211;-79
2022/04/25 10:36:39;;;;;;;15.57;6.00;;;;;;;;;;4974893;28;20027;-79
2022/04/25 10:39:15;;;;;;;14.45;5.10;;;;;;;;;;4979461;28;20023;-79
2022/04/25 10:44:27;;;;;;;12.27;5.32;;;;;;;;;;4975583;28;20054;-78
2022/04/25 10:47:05;;;;;;;13.10;5.35;;;;;;;;;;4983002;28;20027;-81
2022/04/25 10:49:31;;;;;;;13.10;5.00;;;;;;;;;;4979827;28;20038;-78
2022/04/25 10:51:58;;;;;;;8.75;4.32;;;;;;;;;;4976187;28;20493;-83
2022/04/25 10:54:27;;;;;;;10.40;4.00;;;;;;;;;;4978790;28;20360;-83
2022/04/25 10:57:08;;;;;;;9.95;4.60;;;;;;;;;;4973663;28;20105;-82
2022/04/25 10:59:35;;;;;;;13.80;4.65;;;;;;;;;;4975704;28;20031;-85
2022/04/25 11:02:19;;;;;;;9.80;4.70;;;;;;;;;;4978800;28;20145;-83
2022/04/25 11:04:46;;;;;;;12.18;5.07;;;;;;;;;;4974083;28;20554;-83
2022/04/25 11:07:25;;;;;;;10.45;4.35;;;;;;;;;;4986107;28;20022;-93
2022/04/25 11:09:52;;;;;;;8.45;4.60;;;;;;;;;;4973933;28;20027;-85
2022/04/25 11:12:19;;;;;;;15.68;4.75;;;;;;;;;;4977197;28;20033;-79
2022/04/25 11:14:58;;;;;;;11.63;4.20;;;;;;;;;;4982980;28;20089;-87
2022/04/25 11:17:24;;;;;;;10.60;4.35;;;;;;;;;;4979362;28;20011;-86
2022/04/25 11:19:54;;;;;;;9.73;4.22;;;;;;;;;;4977974;28;20026;-83
2022/04/25 11:22:38;;;;;;;11.52;5.20;;;;;;;;;;4973820;28;20529;-85
2022/04/25 11:25:23;;;;;;;13.02;4.80;;;;;;;;;;4975752;28;20030;-82
2022/04/25 11:28:08;;;;;;;8.15;3.88;;;;;;;;;;4978883;28;20027;-86
2022/04/25 11:30:34;;;;;;;9.60;4.32;;;;;;;;;;4977051;28;20031;-82
2022/04/25 11:33:08;;;;;;;11.35;4.15;;;;;;;;;;4983156;28;20031;-82
2022/04/25 11:35:34;;;;;;;9.73;3.83;;;;;;;;;;4988360;28;20027;-81
2022/04/25 11:38:01;;;;;;;12.38;4.18;;;;;;;;;;4975084;28;20025;-81
2022/04/25 11:40:28;;;;;;;10.80;3.85;;;;;;;;;;4975790;28;20018;-81
2022/04/25 11:42:54;;;;;;;10.98;3.85;;;;;;;;;;4965828;28;20390;-82
2022/04/25 11:45:20;;;;;;;11.20;3.90;;;;;;;;;;4975751;28;20380;-82
2022/04/25 11:47:46;;;;;;;9.68;3.92;;;;;;;;;;4973571;28;20034;-81
2022/04/25 11:50:12;;;;;;;11.38;4.45;;;;;;;;;;4981451;28;20040;-79
2022/04/25 11:52:48;;;;;;;13.38;4.22;;;;;;;;;;4972963;28;20237;-80
2022/04/25 11:55:17;;;;;;;10.18;4.00;;;;;;;;;;4973884;28;20031;-80
2022/04/25 11:57:45;;;;;;;10.60;4.63;;;;;;;;;;4971918;28;20066;-80
2022/04/25 12:00:13;;;;;;;9.90;4.32;;;;;;;;;;4989616;28;20030;-80
2022/04/25 12:02:39;;;;;;;15.60;4.13;;;;;;;;;;4974703;28;21355;-80
2022/04/25 12:05:07;;;;;;;6.72;3.45;;;;;;;;;;4982675;28;20026;-81
2022/04/25 12:07:34;;;;;;;15.80;4.70;;;;;;;;;;4975036;28;20053;-80
2022/04/25 12:15:42;;;;;;;8.43;3.60;;;;;;;;;;4973611;28;20090;-80
2022/04/25 12:18:14;;;;;;;15.88;4.40;;;;;;;;;;4978206;28;20027;-80
2022/04/25 12:20:45;;;;;;;8.55;3.60;;;;;;;;;;4974371;28;20051;-80
2022/04/25 12:23:20;;;;;;;7.00;3.80;;;;;;;;;;4976370;28;20042;-80
2022/04/25 12:25:46;;;;;;;10.95;3.97;;;;;;;;;;4972826;28;20034;-81
2022/04/25 12:28:18;;;;;;;13.38;3.58;;;;;;;;;;4980185;28;20030;-80
2022/04/25 12:31:07;;;;;;;10.68;3.63;;;;;;;;;;4985080;28;20047;-79
2022/04/25 12:33:33;;;;;;;10.90;3.75;;;;;;;;;;4969721;28;20034;-80
2022/04/25 12:36:08;;;;;;;14.88;3.83;;;;;;;;;;4975439;28;20026;-80
2022/04/25 12:38:42;;;;;;;6.97;3.47;;;;;;;;;;4973021;28;20027;-80
2022/04/25 12:41:09;;;;;;;9.77;3.80;;;;;;;;;;4964412;28;20015;-80
2022/04/25 12:43:36;;;;;;;10.73;3.30;;;;;;;;;;4977473;28;20022;-79
2022/04/25 12:46:03;;;;;;;9.80;3.58;;;;;;;;;;4978867;28;20026;-80
2022/04/25 12:48:29;;;;;;;7.30;3.13;;;;;;;;;;4980818;28;20073;-80
2022/04/25 12:50:55;;;;;;;9.10;3.60;;;;;;;;;;4972315;28;20168;-80
2022/04/25 12:53:39;;;;;;;7.68;3.20;;;;;;;;;;4974665;28;20026;-80
2022/04/25 12:56:07;;;;;;;7.90;3.50;;;;;;;;;;4976126;28;20078;-80
2022/04/25 12:58:33;;;;;;;14.05;3.80;;;;;;;;;;4974150;28;20034;-80
2022/04/25 13:00:59;;;;;;;9.70;3.53;;;;;;;;;;4974585;28;20069;-80
2022/04/25 13:03:28;;;;;;;12.77;3.60;;;;;;;;;;4979030;28;20022;-80
2022/04/25 13:05:54;;;;;;;15.55;3.40;;;;;;;;;;4983947;28;20030;-80
2022/04/25 13:08:20;;;;;;;9.52;3.53;;;;;;;;;;4980887;28;20045;-80
2022/04/25 13:10:47;;;;;;;9.90;3.83;;;;;;;;;;4980839;28;20050;-79
2022/04/25 13:13:13;;;;;;;10.48;4.00;;;;;;;;;;4973716;28;20023;-80
2022/04/25 13:15:39;;;;;;;10.80;3.40;;;;;;;;;;4978961;28;20026;-80
2022/04/25 13:18:06;;;;;;;8.43;3.55;;;;;;;;;;4978594;28;20339;-79
2022/04/25 13:20:35;;;;;;;13.15;3.80;;;;;;;;;;4975060;28;20414;-80
2022/04/25 13:23:01;;;;;;;8.60;3.25;;;;;;;;;;4975310;28;20030;-80
2022/04/25 13:25:27;;;;;;;9.13;3.22;;;;;;;;;;4975193;28;20026;-80
2022/04/25 13:27:53;;;;;;;6.63;2.85;;;;;;;;;;4977407;28;20038;-80
2022/04/25 13:30:20;;;;;;;11.63;3.58;;;;;;;;;;4979218;28;20560;-80
2022/04/25 13:32:47;;;;;;;10.43;3.75;;;;;;;;;;4972111;28;20399;-79
2022/04/25 13:35:14;;;;;;;7.07;3.00;;;;;;;;;;4980358;28;20019;-79
2022/04/25 13:37:40;;;;;;;6.50;2.85;;;;;;;;;;4973530;28;20031;-79
2022/04/25 13:40:07;;;;;;;7.60;3.22;;;;;;;;;;4980951;28;20434;-78
2022/04/25 13:42:33;;;;;;;7.53;2.85;;;;;;;;;;4977783;28;20099;-79
2022/04/25 13:45:00;;;;;;;8.85;3.47;;;;;;;;;;4969864;28;20034;-79
2022/04/25 13:47:28;;;;;;;10.77;3.63;;;;;;;;;;4973273;28;20037;-77
2022/04/25 13:49:54;;;;;;;9.35;3.03;;;;;;;;;;4975908;28;20030;-78
2022/04/25 13:52:20;;;;;;;9.00;3.50;;;;;;;;;;4975916;28;20031;-78
2022/04/25 13:54:46;;;;;;;7.82;3.03;;;;;;;;;;4971227;28;20380;-78
2022/04/25 13:57:13;;;;;;;8.20;3.42;;;;;;;;;;4976528;28;20051;-78
2022/04/25 13:59:39;;;;;;;9.98;3.38;;;;;;;;;;4971066;28;20535;-78
2022/04/25 14:04:51;;;;;;;15.15;3.50;;;;;;;;;;4970525;28;20049;-77
2022/04/25 14:07:17;;;;;;;10.65;3.75;;;;;;;;;;4979420;28;20019;-77
2022/04/25 14:09:43;;;;;;;11.55;3.55;;;;;;;;;;4978421;28;20026;-77
2022/04/25 14:12:12;;;;;;;5.80;2.58;;;;;;;;;;4975880;28;20023;-78
2022/04/25 14:14:38;;;;;;;12.15;3.13;;;;;;;;;;4978080;28;20069;-77
2022/04/25 14:17:04;;;;;;;8.73;3.45;;;;;;;;;;4976047;28;20495;-84
2022/04/25 14:19:31;;;;;;;10.27;3.80;;;;;;;;;;4975234;28;20033;-81
2022/04/25 14:21:58;;;;;;;9.90;2.78;;;;;;;;;;4968025;28;20038;-76
2022/04/25 14:24:24;;;;;;;7.20;3.00;;;;;;;;;;4971075;28;20542;-77
2022/04/25 14:26:51;;;;;;;11.75;3.22;;;;;;;;;;4973072;28;20027;-77
2022/04/25 14:29:17;;;;;;;11.75;3.53;;;;;;;;;;4980823;28;20026;-78
2022/04/25 14:31:43;;;;;;;13.13;3.17;;;;;;;;;;4970994;28;20138;-77
2022/04/25 14:34:11;;;;;;;14.65;2.95;;;;;;;;;;4981851;28;20109;-77
2022/04/25 14:36:37;;;;;;;10.60;3.25;;;;;;;;;;4980862;28;20046;-78
2022/04/25 14:39:04;;;;;;;6.85;3.35;;;;;;;;;;4983263;28;20108;-77
2022/04/25 14:41:30;;;;;;;9.13;2.97;;;;;;;;;;4977461;28;20386;-78
2022/04/25 14:43:57;;;;;;;10.00;2.72;;;;;;;;;;4981839;28;20053;-77
2022/04/25 14:46:24;;;;;;;13.32;3.35;;;;;;;;;;4974157;28;20034;-77
2022/04/25 14:48:50;;;;;;;8.48;2.97;;;;;;;;;;4980569;28;20096;-77
2022/04/25 14:56:45;;;;;;;7.80;3.33;;;;;;;;;;4971489;28;20434;-78
2022/04/25 14:59:11;;;;;;;8.65;2.80;;;;;;;;;;4974655;28;20027;-77
2022/04/25 15:01:37;;;;;;;10.38;3.22;;;;;;;;;;4970482;28;20022;-78
2022/04/25 15:04:04;;;;;;;10.73;3.03;;;;;;;;;;4976838;28;20150;-78
2022/04/25 15:06:30;;;;;;;9.35;3.15;;;;;;;;;;4981271;28;20043;-77
2022/04/25 15:08:55;;;;;;;10.13;2.70;;;;;;;;;;4983418;28;20026;-77
2022/04/25 15:11:21;;;;;;;5.88;2.42;;;;;;;;;;4982876;28;20023;-77
2022/04/25 15:13:47;;;;;;;11.50;3.17;;;;;;;;;;4975354;28;20391;-78
2022/04/25 15:16:14;;;;;;;11.38;3.60;;;;;;;;;;4973511;28;20026;-77